Time;durP1;ratioP1;P1;durP2;ratioP2;P2;SDS_P1;SDS_P2;PMS_P1;PMS_P2;Temp;Humidity;BMP_temperature;BMP_pressure;BME280_temperature;BME280_humidity;BME280_pressure;Samples;Min_cycle;Max_cycle;Signal;HPM_P1;HPM_P2
2022/08/16 00:00:35;;;;;;;2.80;2.20;;;23.30;91.60;;;;;;6228871;28;88038;-66
2022/08/16 00:03:37;;;;;;;2.35;2.15;;;23.30;92.00;;;;;;6229618;28;88218;-66
2022/08/16 00:06:40;;;;;;;3.20;2.50;;;23.20;92.10;;;;;;6231180;28;89023;-66
2022/08/16 00:09:42;;;;;;;2.97;2.20;;;23.20;92.30;;;;;;6233566;28;89116;-66
2022/08/16 00:12:46;;;;;;;2.63;2.42;;;23.20;92.40;;;;;;6233417;28;89936;-66
2022/08/16 00:15:49;;;;;;;6.45;3.75;;;23.20;92.70;;;;;;6220749;28;89008;-66
2022/08/16 00:18:51;;;;;;;2.78;2.50;;;23.20;92.80;;;;;;6234185;28;89060;-66
2022/08/16 00:21:53;;;;;;;2.97;2.67;;;23.20;93.00;;;;;;6247599;28;89047;-66
2022/08/16 00:24:56;;;;;;;2.55;2.35;;;23.20;93.20;;;;;;6224691;28;88839;-66
2022/08/16 00:27:59;;;;;;;2.70;2.40;;;23.20;93.30;;;;;;6233137;28;89065;-66
2022/08/16 00:31:01;;;;;;;3.00;2.53;;;23.20;93.40;;;;;;6233712;28;89474;-66
2022/08/16 00:34:04;;;;;;;2.55;2.35;;;23.20;93.60;;;;;;6233249;28;88614;-66
2022/08/16 00:37:06;;;;;;;3.30;2.38;;;23.20;93.60;;;;;;6232533;28;89239;-66
2022/08/16 00:40:09;;;;;;;3.70;2.60;;;23.20;93.70;;;;;;6230233;28;89051;-66
2022/08/16 00:43:15;;;;;;;2.70;2.50;;;23.30;93.80;;;;;;6232469;28;89985;-66
2022/08/16 00:46:22;;;;;;;3.05;2.75;;;23.30;93.90;;;;;;6233116;28;88038;-66
2022/08/16 00:49:24;;;;;;;2.80;2.50;;;23.30;93.90;;;;;;6233171;28;88936;-66
2022/08/16 00:52:26;;;;;;;2.60;2.40;;;23.30;94.00;;;;;;6239574;28;89199;-66
2022/08/16 00:55:30;;;;;;;2.47;2.28;;;23.40;94.10;;;;;;6240887;28;89097;-66
2022/08/16 00:58:35;;;;;;;4.50;2.70;;;23.30;94.10;;;;;;6232743;28;89371;-66
2022/08/16 01:01:37;;;;;;;2.42;2.22;;;23.40;94.20;;;;;;6232106;28;89475;-66
2022/08/16 01:04:39;;;;;;;3.05;2.50;;;23.40;94.20;;;;;;6233670;28;88323;-66
2022/08/16 01:07:43;;;;;;;2.58;2.38;;;23.40;94.40;;;;;;6232878;28;89448;-66
2022/08/16 01:10:46;;;;;;;2.92;2.42;;;23.40;94.40;;;;;;6225166;28;88283;-67
2022/08/16 01:13:53;;;;;;;3.03;2.33;;;23.40;94.40;;;;;;6232358;28;89968;-66
2022/08/16 01:16:56;;;;;;;2.70;2.50;;;23.40;94.50;;;;;;6233219;28;89111;-66
2022/08/16 01:20:02;;;;;;;2.53;2.33;;;23.40;94.60;;;;;;6231489;28;89462;-66
2022/08/16 01:23:12;;;;;;;2.90;2.70;;;23.50;94.80;;;;;;6226580;28;88965;-66
2022/08/16 01:26:17;;;;;;;2.80;2.60;;;23.40;94.80;;;;;;6221453;28;87978;-66
2022/08/16 01:29:23;;;;;;;2.83;2.60;;;23.40;95.00;;;;;;6228081;28;90573;-66
2022/08/16 01:32:26;;;;;;;3.60;2.75;;;23.40;95.10;;;;;;6244088;28;89029;-66
2022/08/16 01:35:33;;;;;;;3.10;2.80;;;23.50;95.40;;;;;;6236449;28;88641;-66
2022/08/16 01:38:38;;;;;;;3.00;2.58;;;23.40;95.50;;;;;;6238412;28;89331;-66
2022/08/16 01:41:41;;;;;;;2.55;2.35;;;23.40;95.70;;;;;;6235905;28;89376;-66
2022/08/16 01:44:43;;;;;;;2.70;2.50;;;23.40;95.80;;;;;;6230187;28;90121;-66
2022/08/16 01:47:47;;;;;;;3.50;2.67;;;23.40;96.00;;;;;;6239860;28;89091;-66
2022/08/16 01:50:52;;;;;;;3.17;2.50;;;23.40;96.20;;;;;;6233032;28;89416;-66
2022/08/16 01:53:54;;;;;;;3.35;2.67;;;23.40;96.30;;;;;;6220897;28;89029;-66
2022/08/16 01:56:58;;;;;;;2.80;2.60;;;23.40;96.50;;;;;;6231177;28;89438;-66
2022/08/16 02:00:00;;;;;;;2.90;2.60;;;23.40;97.10;;;;;;6232251;28;87938;-66
2022/08/16 02:03:02;;;;;;;2.58;2.30;;;23.40;96.90;;;;;;6231314;28;89129;-66
2022/08/16 02:06:05;;;;;;;3.15;2.50;;;23.40;96.90;;;;;;6232648;28;88391;-66
2022/08/16 02:09:08;;;;;;;2.92;2.50;;;23.40;97.00;;;;;;6231427;28;90230;-66
2022/08/16 02:12:12;;;;;;;3.03;2.72;;;23.40;97.00;;;;;;6231330;28;89066;-66
2022/08/16 02:15:15;;;;;;;2.65;2.45;;;23.40;97.10;;;;;;6231418;28;89847;-66
2022/08/16 02:18:17;;;;;;;2.75;2.42;;;23.40;97.10;;;;;;6230597;28;89194;-66
2022/08/16 02:21:20;;;;;;;2.58;2.33;;;23.40;97.10;;;;;;6232287;28;89108;-66
2022/08/16 02:24:22;;;;;;;3.08;2.58;;;23.40;97.20;;;;;;6222084;28;88964;-66
2022/08/16 02:27:26;;;;;;;2.78;2.40;;;23.40;97.20;;;;;;6224015;28;89000;-66
2022/08/16 02:30:30;;;;;;;3.47;2.88;;;23.40;97.10;;;;;;6224804;28;89028;-66
2022/08/16 02:33:32;;;;;;;3.75;2.55;;;23.40;97.10;;;;;;6222385;28;89128;-66
2022/08/16 02:36:34;;;;;;;2.90;2.60;;;23.40;97.00;;;;;;6231179;28;88362;-66
2022/08/16 02:39:36;;;;;;;2.97;2.72;;;23.40;97.00;;;;;;6221826;28;89062;-66
2022/08/16 02:42:40;;;;;;;2.70;2.50;;;23.40;97.00;;;;;;6227117;28;87989;-66
2022/08/16 02:45:42;;;;;;;3.83;2.70;;;23.40;97.00;;;;;;6220634;28;89965;-66
2022/08/16 02:48:44;;;;;;;2.88;2.67;;;23.40;97.10;;;;;;6231494;28;87769;-66
2022/08/16 02:51:46;;;;;;;4.20;2.50;;;23.40;97.00;;;;;;6230860;28;89361;-66
2022/08/16 02:54:48;;;;;;;2.85;2.65;;;23.40;97.00;;;;;;6239029;28;88998;-66
2022/08/16 02:57:51;;;;;;;2.67;2.47;;;23.40;97.00;;;;;;6217476;28;89107;-66
2022/08/16 03:00:54;;;;;;;4.13;2.70;;;23.40;96.80;;;;;;6231290;28;89043;-66
2022/08/16 03:03:58;;;;;;;2.63;2.38;;;23.40;96.80;;;;;;6230327;28;89527;-66
2022/08/16 03:07:00;;;;;;;2.90;2.60;;;23.40;96.70;;;;;;6230129;28;88519;-66
2022/08/16 03:10:02;;;;;;;2.70;2.50;;;23.40;96.60;;;;;;6230517;28;89136;-66
2022/08/16 03:13:06;;;;;;;2.83;2.50;;;23.40;96.60;;;;;;6229998;28;89079;-66
2022/08/16 03:16:09;;;;;;;3.47;2.47;;;23.40;96.70;;;;;;6228067;28;90684;-66
2022/08/16 03:19:11;;;;;;;3.30;2.90;;;23.40;96.70;;;;;;6229495;28;89468;-66
2022/08/16 03:22:13;;;;;;;3.13;2.38;;;23.40;96.70;;;;;;6232051;28;89228;-66
2022/08/16 03:25:16;;;;;;;3.08;2.40;;;23.40;96.70;;;;;;6220971;28;89408;-66
2022/08/16 03:28:20;;;;;;;3.05;2.65;;;23.40;96.80;;;;;;6229148;28;89086;-66
2022/08/16 03:31:22;;;;;;;3.38;2.83;;;23.30;96.90;;;;;;6223671;28;89045;-66
2022/08/16 03:34:24;;;;;;;3.30;2.55;;;23.30;97.00;;;;;;6227036;28;88006;-66
2022/08/16 03:37:26;;;;;;;4.00;2.50;;;23.30;97.10;;;;;;6230077;28;88324;-66
2022/08/16 03:40:29;;;;;;;4.10;2.90;;;23.30;97.20;;;;;;6236179;28;89022;-66
2022/08/16 03:43:33;;;;;;;3.00;2.70;;;23.30;97.20;;;;;;6230083;28;88361;-66
2022/08/16 03:46:35;;;;;;;4.90;3.17;;;23.30;97.30;;;;;;6218782;28;90255;-66
2022/08/16 03:49:37;;;;;;;3.05;2.75;;;23.30;97.40;;;;;;6234537;28;88996;-66
2022/08/16 03:52:40;;;;;;;2.80;2.50;;;23.30;97.40;;;;;;6230091;28;89289;-66
2022/08/16 03:55:42;;;;;;;3.25;2.70;;;23.30;97.40;;;;;;6229465;28;88993;-66
2022/08/16 03:58:45;;;;;;;2.90;2.70;;;23.30;97.50;;;;;;6222359;28;89102;-67
2022/08/16 04:01:47;;;;;;;2.88;2.60;;;23.30;97.50;;;;;;6230535;28;89043;-66
2022/08/16 04:04:49;;;;;;;2.70;2.50;;;23.30;97.60;;;;;;6225494;28;89152;-66
2022/08/16 04:07:51;;;;;;;2.95;2.50;;;23.30;97.60;;;;;;6230010;28;87258;-66
2022/08/16 04:10:55;;;;;;;3.13;2.60;;;23.30;97.50;;;;;;6228703;28;89391;-66
2022/08/16 04:13:58;;;;;;;3.28;2.97;;;23.30;97.50;;;;;;6225460;28;88167;-66
2022/08/16 04:17:01;;;;;;;2.58;2.38;;;23.30;97.70;;;;;;6228621;28;88967;-66
2022/08/16 04:20:06;;;;;;;2.90;2.70;;;23.30;97.80;;;;;;6229837;28;89087;-66
2022/08/16 04:23:09;;;;;;;2.65;2.45;;;23.30;97.80;;;;;;6227793;28;89324;-66
2022/08/16 04:26:11;;;;;;;3.53;2.80;;;23.30;97.70;;;;;;6220813;28;89431;-66
2022/08/16 04:29:15;;;;;;;2.88;2.65;;;23.30;97.70;;;;;;6225009;28;87963;-66
2022/08/16 04:32:17;;;;;;;3.38;3.03;;;23.30;97.80;;;;;;6215869;28;89344;-66
2022/08/16 04:35:21;;;;;;;3.70;3.00;;;23.30;97.80;;;;;;6230257;28;89448;-66
2022/08/16 04:38:23;;;;;;;4.38;2.58;;;23.30;97.90;;;;;;6241531;28;87358;-66
2022/08/16 04:41:25;;;;;;;2.88;2.67;;;23.30;98.00;;;;;;6227882;28;89167;-66
2022/08/16 04:44:29;;;;;;;3.03;2.80;;;23.30;97.90;;;;;;6228955;28;89377;-66
2022/08/16 04:47:31;;;;;;;2.60;2.40;;;23.30;97.90;;;;;;6234212;28;89967;-66
2022/08/16 04:50:33;;;;;;;3.30;3.00;;;23.30;97.90;;;;;;6228639;28;89473;-65
2022/08/16 04:53:35;;;;;;;3.20;2.90;;;23.30;98.00;;;;;;6229141;28;89182;-66
2022/08/16 04:56:38;;;;;;;3.83;2.83;;;23.30;98.20;;;;;;6233033;28;89025;-66
2022/08/16 04:59:42;;;;;;;2.83;2.58;;;23.30;98.30;;;;;;6232042;28;89417;-66
2022/08/16 05:02:44;;;;;;;4.03;2.80;;;23.30;98.30;;;;;;6233151;28;89102;-66
2022/08/16 05:05:46;;;;;;;3.22;2.70;;;23.30;98.40;;;;;;6231386;28;89043;-66
2022/08/16 05:08:48;;;;;;;3.90;2.83;;;23.30;98.30;;;;;;6240882;28;88780;-65
2022/08/16 05:11:50;;;;;;;3.10;2.80;;;23.30;98.30;;;;;;6233221;28;88902;-66
2022/08/16 05:14:53;;;;;;;5.28;3.50;;;23.30;98.30;;;;;;6231610;28;89075;-66
2022/08/16 05:17:56;;;;;;;2.90;2.70;;;23.30;98.20;;;;;;6232225;28;89999;-65
2022/08/16 05:20:58;;;;;;;3.35;2.78;;;23.30;98.10;;;;;;6232569;28;89130;-66
2022/08/16 05:24:00;;;;;;;2.72;2.50;;;23.30;98.10;;;;;;6231982;28;88420;-65
2022/08/16 05:27:02;;;;;;;3.03;2.58;;;23.30;98.10;;;;;;6233048;28;89532;-66
2022/08/16 05:30:08;;;;;;;2.97;2.50;;;23.30;98.00;;;;;;6232197;28;88342;-66
2022/08/16 05:33:10;;;;;;;4.15;2.72;;;23.30;98.00;;;;;;6227357;28;89048;-66
2022/08/16 05:36:12;;;;;;;3.03;2.72;;;23.40;98.00;;;;;;6230662;28;89111;-65
2022/08/16 05:39:14;;;;;;;3.17;2.80;;;23.40;98.00;;;;;;6232639;28;88321;-66
2022/08/16 05:42:16;;;;;;;3.08;2.80;;;23.40;98.00;;;;;;6231870;28;89157;-66
2022/08/16 05:45:20;;;;;;;3.15;2.85;;;23.40;98.00;;;;;;6232129;28;88067;-66
2022/08/16 05:48:22;;;;;;;3.35;2.88;;;23.40;98.00;;;;;;6230985;28;90288;-66
2022/08/16 05:51:24;;;;;;;3.30;2.70;;;23.40;98.00;;;;;;6233069;28;89376;-66
2022/08/16 05:54:27;;;;;;;3.60;2.80;;;23.40;97.90;;;;;;6231944;28;89230;-66
2022/08/16 05:57:29;;;;;;;3.97;2.70;;;23.40;98.00;;;;;;6232634;28;89088;-66
2022/08/16 06:00:33;;;;;;;2.80;2.60;;;23.40;98.00;;;;;;6231884;28;89083;-66
2022/08/16 06:03:35;;;;;;;3.22;2.90;;;23.40;98.00;;;;;;6230160;28;89393;-65
2022/08/16 06:06:38;;;;;;;2.90;2.70;;;23.40;98.00;;;;;;6231835;28;89023;-65
2022/08/16 06:09:40;;;;;;;3.15;2.70;;;23.40;98.00;;;;;;6231822;28;88488;-65
2022/08/16 06:12:42;;;;;;;3.10;2.80;;;23.40;98.10;;;;;;6232061;28;89275;-65
2022/08/16 06:15:45;;;;;;;3.08;2.80;;;23.40;98.10;;;;;;6230875;28;89330;-65
2022/08/16 06:18:47;;;;;;;3.20;2.90;;;23.40;98.20;;;;;;6231507;28;90014;-65
2022/08/16 06:21:49;;;;;;;3.08;2.80;;;23.40;98.20;;;;;;6228931;28;89693;-65
2022/08/16 06:24:51;;;;;;;2.90;2.70;;;23.40;98.20;;;;;;6232824;28;88032;-66
2022/08/16 06:27:53;;;;;;;2.85;2.65;;;23.50;98.30;;;;;;6229205;28;89030;-65
2022/08/16 06:30:57;;;;;;;2.97;2.63;;;23.40;98.30;;;;;;6231125;28;89106;-65
2022/08/16 06:33:59;;;;;;;2.85;2.65;;;23.40;98.40;;;;;;6234122;28;89088;-65
2022/08/16 06:37:02;;;;;;;3.05;2.72;;;23.40;98.40;;;;;;6239700;28;89074;-65
2022/08/16 06:40:05;;;;;;;3.00;2.60;;;23.50;98.50;;;;;;6231675;28;88490;-66
2022/08/16 06:43:07;;;;;;;3.20;2.90;;;23.40;98.50;;;;;;6230677;28;89060;-65
2022/08/16 06:46:23;;;;;;;2.83;2.60;;;23.50;98.40;;;;;;6235160;28;89063;-65
2022/08/16 06:49:25;;;;;;;3.05;2.75;;;23.40;98.40;;;;;;6226362;28;90319;-65
2022/08/16 06:52:30;;;;;;;2.95;2.65;;;23.50;98.40;;;;;;6216857;28;89125;-65
2022/08/16 06:55:33;;;;;;;3.10;2.80;;;23.50;98.50;;;;;;6223133;28;89151;-65
2022/08/16 06:58:35;;;;;;;3.30;3.00;;;23.50;98.50;;;;;;6231420;28;89178;-66
2022/08/16 07:01:38;;;;;;;3.10;2.80;;;23.50;98.60;;;;;;6230803;28;87990;-65
2022/08/16 07:04:41;;;;;;;3.35;3.05;;;23.50;98.60;;;;;;6230029;28;89118;-66
2022/08/16 07:07:47;;;;;;;3.20;2.90;;;23.50;98.70;;;;;;6230305;28;87977;-66
2022/08/16 07:10:49;;;;;;;3.08;2.75;;;23.50;98.80;;;;;;6232072;28;88239;-66
2022/08/16 07:13:51;;;;;;;2.88;2.67;;;23.50;98.90;;;;;;6228734;28;89022;-66
2022/08/16 07:16:56;;;;;;;2.97;2.78;;;23.50;98.90;;;;;;6229528;28;89085;-66
2022/08/16 07:19:58;;;;;;;3.38;2.90;;;23.50;98.80;;;;;;6229583;28;90058;-66
2022/08/16 07:23:00;;;;;;;3.20;2.90;;;23.50;98.80;;;;;;6229892;28;89441;-66
2022/08/16 07:26:02;;;;;;;3.97;3.15;;;23.50;98.80;;;;;;6224869;28;89071;-66
2022/08/16 07:29:04;;;;;;;2.80;2.60;;;23.50;98.80;;;;;;6230510;28;89516;-65
2022/08/16 07:32:07;;;;;;;3.20;2.90;;;23.60;98.90;;;;;;6234316;28;89176;-66
2022/08/16 07:35:09;;;;;;;2.80;2.60;;;23.50;98.90;;;;;;6229783;28;89088;-66
2022/08/16 07:38:11;;;;;;;2.70;2.50;;;23.60;98.90;;;;;;6229773;28;89088;-66
2022/08/16 07:41:13;;;;;;;2.80;2.60;;;23.50;98.90;;;;;;6230086;28;88651;-66
2022/08/16 07:44:15;;;;;;;3.25;2.95;;;23.60;99.00;;;;;;6228819;28;87976;-65
2022/08/16 07:47:20;;;;;;;2.67;2.47;;;23.50;99.30;;;;;;6230580;28;89012;-66
2022/08/16 07:50:23;;;;;;;2.60;2.40;;;23.50;98.90;;;;;;6230350;28;89981;-65
2022/08/16 07:53:25;;;;;;;3.10;2.88;;;23.60;99.00;;;;;;6229792;28;89051;-66
2022/08/16 07:56:27;;;;;;;3.13;2.85;;;23.60;99.10;;;;;;6230318;28;89120;-66
2022/08/16 07:59:29;;;;;;;2.80;2.50;;;23.60;99.10;;;;;;6242317;28;87939;-66
2022/08/16 08:02:33;;;;;;;2.78;2.58;;;23.60;99.10;;;;;;6228982;28;89460;-66
2022/08/16 08:05:35;;;;;;;2.92;2.63;;;23.60;99.10;;;;;;6225849;28;89038;-66
2022/08/16 08:08:38;;;;;;;2.70;2.50;;;23.60;99.10;;;;;;6221048;28;89053;-66
2022/08/16 08:11:40;;;;;;;3.53;3.08;;;23.60;99.20;;;;;;6217275;28;88445;-66
2022/08/16 08:14:42;;;;;;;3.00;2.80;;;23.60;99.20;;;;;;6230318;28;89184;-66
2022/08/16 08:17:47;;;;;;;2.78;2.58;;;23.60;99.20;;;;;;6229963;28;89023;-66
2022/08/16 08:20:49;;;;;;;2.70;2.50;;;23.60;99.30;;;;;;6228589;28;89159;-66
2022/08/16 08:23:52;;;;;;;2.88;2.60;;;23.60;99.20;;;;;;6228143;28;88148;-66
2022/08/16 08:26:58;;;;;;;2.67;2.47;;;23.60;99.20;;;;;;6229409;28;89354;-66
2022/08/16 08:30:00;;;;;;;2.95;2.75;;;23.60;99.30;;;;;;6231217;28;89127;-66
2022/08/16 08:33:03;;;;;;;2.70;2.50;;;23.60;99.30;;;;;;6235222;28;89066;-66
2022/08/16 08:36:12;;;;;;;3.65;2.85;;;23.60;99.40;;;;;;6231917;28;89085;-66
2022/08/16 08:39:15;;;;;;;3.10;2.80;;;23.60;99.40;;;;;;6225400;28;89204;-66
2022/08/16 08:42:17;;;;;;;3.03;2.63;;;23.60;99.50;;;;;;6234556;28;88344;-66
2022/08/16 08:45:19;;;;;;;2.65;2.45;;;23.60;99.50;;;;;;6233613;28;89501;-66
2022/08/16 08:48:23;;;;;;;2.75;2.55;;;23.60;99.50;;;;;;6243217;28;89139;-66
2022/08/16 08:51:25;;;;;;;2.63;2.42;;;23.60;99.50;;;;;;6234175;28;90095;-66
2022/08/16 08:54:26;;;;;;;2.70;2.50;;;23.60;99.50;;;;;;6232896;28;88986;-66
2022/08/16 08:57:28;;;;;;;2.75;2.50;;;23.60;99.60;;;;;;6233548;28;87014;-66
2022/08/16 09:00:31;;;;;;;2.70;2.50;;;23.60;99.40;;;;;;6233219;28;89363;-66
2022/08/16 09:03:35;;;;;;;2.80;2.50;;;23.60;99.50;;;;;;6231576;28;89064;-65
2022/08/16 09:06:37;;;;;;;2.60;2.35;;;23.60;99.50;;;;;;6232460;28;89044;-66
2022/08/16 09:09:40;;;;;;;3.20;2.90;;;23.60;99.40;;;;;;6232420;28;88134;-66
2022/08/16 09:12:42;;;;;;;2.83;2.60;;;23.60;99.60;;;;;;6226207;28;88390;-66
2022/08/16 09:15:44;;;;;;;3.15;2.50;;;23.60;99.70;;;;;;6238521;28;89087;-66
2022/08/16 09:18:48;;;;;;;3.28;2.97;;;23.60;99.80;;;;;;6239233;28;89897;-67
2022/08/16 09:21:50;;;;;;;3.20;2.70;;;23.60;99.80;;;;;;6236173;28;90381;-66
2022/08/16 09:24:52;;;;;;;2.83;2.63;;;23.60;99.90;;;;;;6225879;28;90294;-66
2022/08/16 09:27:54;;;;;;;2.60;2.40;;;23.60;99.90;;;;;;6231580;28;87890;-66
2022/08/16 09:30:56;;;;;;;2.65;2.45;;;23.60;99.90;;;;;;6233046;28;89230;-66
2022/08/16 09:34:00;;;;;;;2.67;2.47;;;23.60;99.90;;;;;;6231325;28;89482;-66
2022/08/16 09:37:02;;;;;;;2.92;2.72;;;23.60;99.90;;;;;;6232174;28;89212;-66
2022/08/16 09:40:07;;;;;;;2.95;2.65;;;23.60;99.90;;;;;;6232187;28;89036;-66
2022/08/16 09:43:10;;;;;;;3.05;2.53;;;23.60;99.90;;;;;;6230276;28;88494;-66
2022/08/16 09:46:12;;;;;;;2.72;2.53;;;23.60;99.90;;;;;;6233302;28;89103;-66
2022/08/16 09:49:15;;;;;;;2.75;2.55;;;23.60;99.90;;;;;;6231228;28;89424;-66
2022/08/16 09:52:17;;;;;;;3.10;2.83;;;23.60;99.90;;;;;;6231409;28;88898;-66
2022/08/16 09:55:19;;;;;;;2.70;2.50;;;23.70;99.90;;;;;;6233146;28;89419;-66
2022/08/16 09:58:23;;;;;;;2.70;2.50;;;23.60;99.90;;;;;;6232244;28;89060;-66
2022/08/16 10:01:25;;;;;;;2.70;2.50;;;23.70;99.90;;;;;;6230758;28;89035;-66
2022/08/16 10:04:29;;;;;;;2.85;2.55;;;23.60;99.90;;;;;;6232096;28;89426;-66
2022/08/16 10:07:32;;;;;;;2.72;2.53;;;23.60;99.90;;;;;;6230481;28;89101;-66
2022/08/16 10:10:35;;;;;;;2.60;2.40;;;23.60;99.90;;;;;;6231020;28;89187;-66
2022/08/16 10:13:36;;;;;;;2.60;2.40;;;23.70;99.90;;;;;;6239236;28;87174;-66
2022/08/16 10:16:38;;;;;;;3.22;2.90;;;23.60;99.90;;;;;;6229593;28;88026;-66
2022/08/16 10:19:41;;;;;;;2.60;2.40;;;23.70;99.90;;;;;;6231724;28;89385;-66
2022/08/16 10:22:43;;;;;;;2.95;2.72;;;23.60;99.90;;;;;;6230312;28;90228;-66
2022/08/16 10:25:47;;;;;;;2.70;2.50;;;23.70;99.90;;;;;;6230806;28;89091;-66
2022/08/16 10:28:49;;;;;;;2.75;2.55;;;23.70;99.90;;;;;;6240393;28;89387;-66
2022/08/16 10:31:51;;;;;;;2.53;2.33;;;23.70;99.90;;;;;;6225301;28;89083;-66
2022/08/16 10:34:54;;;;;;;2.80;2.60;;;23.70;99.90;;;;;;6231068;28;89402;-66
2022/08/16 10:37:56;;;;;;;2.58;2.38;;;23.70;99.90;;;;;;6231323;28;89064;-66
2022/08/16 10:40:58;;;;;;;2.90;2.60;;;23.70;99.90;;;;;;6231095;28;89289;-66
2022/08/16 10:44:00;;;;;;;2.60;2.40;;;23.70;99.90;;;;;;6229380;28;88644;-67
2022/08/16 10:47:02;;;;;;;2.50;2.30;;;23.70;99.90;;;;;;6232723;28;89668;-66
2022/08/16 10:50:07;;;;;;;2.60;2.40;;;23.70;99.90;;;;;;6229057;28;89108;-66
2022/08/16 10:53:10;;;;;;;2.70;2.50;;;23.70;99.90;;;;;;6226296;28;89911;-66
2022/08/16 10:56:13;;;;;;;2.50;2.30;;;23.70;99.90;;;;;;6231362;28;89015;-66
2022/08/16 10:59:15;;;;;;;3.03;2.75;;;23.70;99.90;;;;;;6230974;28;89083;-66
2022/08/16 11:02:18;;;;;;;2.50;2.30;;;23.70;99.90;;;;;;6230630;28;88939;-66
2022/08/16 11:05:21;;;;;;;2.45;2.25;;;23.70;99.90;;;;;;6242460;28;89056;-66
2022/08/16 11:08:23;;;;;;;2.60;2.40;;;23.70;99.90;;;;;;6230926;28;89311;-66
2022/08/16 11:11:25;;;;;;;2.45;2.25;;;23.70;99.90;;;;;;6230038;28;89232;-66
2022/08/16 11:14:28;;;;;;;2.60;2.35;;;23.70;99.90;;;;;;6230467;28;88296;-66
2022/08/16 11:17:30;;;;;;;2.55;2.35;;;23.70;99.90;;;;;;6230649;28;89166;-67
2022/08/16 11:20:33;;;;;;;2.60;2.40;;;23.70;99.90;;;;;;6230353;28;89395;-66
2022/08/16 11:23:35;;;;;;;3.97;2.53;;;23.70;99.90;;;;;;6229643;28;89370;-66
2022/08/16 11:26:38;;;;;;;2.75;2.55;;;23.70;99.90;;;;;;6218924;28;88890;-66
2022/08/16 11:29:40;;;;;;;2.90;2.70;;;23.70;99.90;;;;;;6229621;28;88964;-66
2022/08/16 11:32:43;;;;;;;2.40;2.20;;;23.70;99.90;;;;;;6229096;28;89225;-66
2022/08/16 11:35:47;;;;;;;2.58;2.38;;;23.70;99.90;;;;;;6229667;28;89101;-66
2022/08/16 11:38:49;;;;;;;2.80;2.60;;;23.70;99.90;;;;;;6233764;28;88998;-66
2022/08/16 11:41:51;;;;;;;3.55;2.90;;;23.70;99.90;;;;;;6236930;28;89385;-67
2022/08/16 11:44:53;;;;;;;2.30;2.10;;;23.70;99.90;;;;;;6214949;28;88341;-67
2022/08/16 11:47:55;;;;;;;2.42;2.22;;;23.70;99.90;;;;;;6221647;27;89518;-66
2022/08/16 11:50:59;;;;;;;2.45;2.25;;;23.70;99.90;;;;;;6229796;28;89065;-66
2022/08/16 11:54:01;;;;;;;2.67;2.47;;;23.70;99.90;;;;;;6228725;28;90216;-66
2022/08/16 11:57:04;;;;;;;2.55;2.35;;;23.70;99.90;;;;;;6228479;28;89068;-66
2022/08/16 12:00:10;;;;;;;2.58;2.38;;;23.70;99.90;;;;;;6227110;28;88971;-66
2022/08/16 12:03:13;;;;;;;2.60;2.40;;;23.70;99.90;;;;;;6230809;28;89040;-66
2022/08/16 12:06:18;;;;;;;3.58;2.70;;;23.70;99.90;;;;;;6232511;28;89615;-67
2022/08/16 12:09:21;;;;;;;2.75;2.50;;;23.70;99.90;;;;;;6232227;28;89016;-67
2022/08/16 12:12:23;;;;;;;2.78;2.58;;;23.70;99.90;;;;;;6223944;28;89203;-67
2022/08/16 12:15:26;;;;;;;2.60;2.40;;;23.70;99.90;;;;;;6234854;28;88272;-66
2022/08/16 12:18:29;;;;;;;2.50;2.30;;;23.70;99.90;;;;;;6232795;28;87946;-66
2022/08/16 12:21:33;;;;;;;2.67;2.47;;;23.70;99.90;;;;;;6224126;28;89103;-66
2022/08/16 12:24:35;;;;;;;2.10;2.00;;;23.80;99.90;;;;;;6228670;28;89938;-66
2022/08/16 12:27:38;;;;;;;2.33;2.20;;;23.80;99.90;;;;;;6232710;28;89089;-67
2022/08/16 12:30:43;;;;;;;2.47;2.28;;;23.80;99.90;;;;;;6222657;28;89050;-67
2022/08/16 12:33:45;;;;;;;2.80;2.42;;;23.70;99.90;;;;;;6233000;28;87967;-66
2022/08/16 12:36:49;;;;;;;2.50;2.30;;;23.70;99.90;;;;;;6232777;28;89110;-66
2022/08/16 12:39:53;;;;;;;2.42;2.22;;;23.70;99.90;;;;;;6234363;28;89034;-66
2022/08/16 12:42:58;;;;;;;2.50;2.30;;;23.70;99.90;;;;;;6232274;28;89270;-66
2022/08/16 12:46:00;;;;;;;2.40;2.20;;;23.80;99.90;;;;;;6228702;28;88486;-66
2022/08/16 12:49:02;;;;;;;2.60;2.40;;;23.80;99.90;;;;;;6227100;28;89665;-66
2022/08/16 12:52:05;;;;;;;3.03;2.70;;;23.70;99.90;;;;;;6230430;28;87940;-67
2022/08/16 12:55:10;;;;;;;2.50;2.30;;;23.80;99.90;;;;;;6242824;28;90027;-66
2022/08/16 12:58:12;;;;;;;2.50;2.30;;;23.70;99.90;;;;;;6234304;28;89113;-66
2022/08/16 13:01:14;;;;;;;2.40;2.20;;;23.70;99.90;;;;;;6231292;28;89217;-67
2022/08/16 13:04:16;;;;;;;2.40;2.20;;;23.70;99.90;;;;;;6232789;28;89007;-66
2022/08/16 13:07:20;;;;;;;2.40;2.20;;;23.80;99.90;;;;;;6232041;28;89161;-66
2022/08/16 13:10:22;;;;;;;2.40;2.20;;;23.80;99.90;;;;;;6247070;28;89069;-67
2022/08/16 13:13:25;;;;;;;2.40;2.20;;;23.80;99.90;;;;;;6237849;28;89249;-66
2022/08/16 13:16:27;;;;;;;2.88;2.58;;;23.70;99.90;;;;;;6231612;28;88692;-67
2022/08/16 13:19:30;;;;;;;2.55;2.35;;;23.80;99.90;;;;;;6243788;27;89259;-67
2022/08/16 13:22:34;;;;;;;2.03;1.92;;;23.70;99.90;;;;;;6233188;28;87838;-67
2022/08/16 13:25:38;;;;;;;2.40;2.20;;;23.80;99.90;;;;;;6232161;28;90067;-67
2022/08/16 13:28:40;;;;;;;2.35;2.15;;;23.80;99.90;;;;;;6232304;28;89604;-66
2022/08/16 13:31:42;;;;;;;2.33;2.13;;;23.80;99.90;;;;;;6223344;28;89054;-67
2022/08/16 13:34:44;;;;;;;2.50;2.30;;;23.80;99.90;;;;;;6231049;28;89059;-66
2022/08/16 13:37:47;;;;;;;2.47;2.28;;;23.80;99.90;;;;;;6231564;28;89031;-66
2022/08/16 13:40:50;;;;;;;1.90;1.80;;;23.80;99.90;;;;;;6232315;28;89092;-66
2022/08/16 13:43:51;;;;;;;2.58;2.38;;;23.80;99.90;;;;;;6233104;28;89239;-66
2022/08/16 13:46:55;;;;;;;2.25;2.15;;;23.80;99.90;;;;;;6229927;28;88629;-67
2022/08/16 13:49:57;;;;;;;2.33;2.13;;;23.80;99.90;;;;;;6232889;28;88963;-67
2022/08/16 13:53:01;;;;;;;2.20;2.05;;;23.80;99.90;;;;;;6231716;28;89404;-66
2022/08/16 13:56:03;;;;;;;2.25;2.10;;;23.80;99.90;;;;;;6230404;28;90354;-66
2022/08/16 13:59:07;;;;;;;2.20;2.00;;;23.80;99.90;;;;;;6231996;28;89415;-66
2022/08/16 14:02:10;;;;;;;2.60;2.40;;;23.80;99.90;;;;;;6232468;28;88009;-66
2022/08/16 14:05:12;;;;;;;2.30;2.10;;;23.80;99.90;;;;;;6232150;28;89203;-67
2022/08/16 14:08:15;;;;;;;2.80;2.58;;;23.80;99.90;;;;;;6231635;28;89983;-67
2022/08/16 14:11:17;;;;;;;2.38;2.17;;;23.80;99.90;;;;;;6232233;28;89159;-67
2022/08/16 14:14:19;;;;;;;2.35;2.15;;;23.80;99.90;;;;;;6242903;28;89083;-67
2022/08/16 14:17:22;;;;;;;2.55;2.30;;;23.80;99.90;;;;;;6230506;28;88714;-67
2022/08/16 14:20:24;;;;;;;2.42;2.22;;;23.80;99.90;;;;;;6232099;28;89453;-66
2022/08/16 14:23:28;;;;;;;2.15;1.95;;;23.80;99.90;;;;;;6231266;28;89443;-67
2022/08/16 14:26:30;;;;;;;2.15;2.05;;;23.80;99.90;;;;;;6241653;27;90005;-67
2022/08/16 14:29:32;;;;;;;2.40;2.20;;;23.80;99.90;;;;;;6228267;28;87894;-66
2022/08/16 14:32:34;;;;;;;2.33;2.13;;;23.80;99.90;;;;;;6231799;28;89044;-66
2022/08/16 14:35:37;;;;;;;2.50;2.30;;;23.80;99.90;;;;;;6230108;28;89660;-67
2022/08/16 14:38:40;;;;;;;2.30;2.10;;;23.90;99.90;;;;;;6230589;28;89258;-67
2022/08/16 14:41:42;;;;;;;2.20;2.00;;;23.90;99.90;;;;;;6231636;28;90242;-66
2022/08/16 14:44:44;;;;;;;2.40;2.20;;;23.90;99.90;;;;;;6230084;28;89317;-67
2022/08/16 14:47:47;;;;;;;2.47;2.28;;;23.80;99.90;;;;;;6231428;28;88340;-67
2022/08/16 14:50:49;;;;;;;2.83;2.30;;;23.90;99.90;;;;;;6230606;28;88938;-66
2022/08/16 14:53:52;;;;;;;2.40;2.20;;;23.90;99.90;;;;;;6229627;28;89431;-67
2022/08/16 14:56:54;;;;;;;2.50;2.30;;;23.90;99.90;;;;;;6220458;28;90391;-66
2022/08/16 14:59:56;;;;;;;2.05;1.90;;;23.80;99.90;;;;;;6231180;28;89120;-67
2022/08/16 15:03:00;;;;;;;2.42;2.22;;;23.90;99.90;;;;;;6234044;28;89260;-66
2022/08/16 15:06:02;;;;;;;2.47;2.28;;;23.90;99.90;;;;;;6230462;28;89222;-67
2022/08/16 15:09:05;;;;;;;2.13;2.00;;;23.90;99.90;;;;;;6229374;28;89148;-66
2022/08/16 15:12:09;;;;;;;2.40;2.20;;;23.80;99.90;;;;;;6231181;28;89103;-67
2022/08/16 15:15:14;;;;;;;2.50;2.30;;;23.90;99.90;;;;;;6230828;28;88265;-67
2022/08/16 15:18:16;;;;;;;2.53;2.33;;;23.90;99.90;;;;;;6231923;28;88508;-66
2022/08/16 15:21:18;;;;;;;2.40;2.20;;;23.90;99.90;;;;;;6234506;28;89334;-67
2022/08/16 15:24:21;;;;;;;2.55;2.35;;;23.80;99.90;;;;;;6230139;28;89315;-66
2022/08/16 15:27:24;;;;;;;2.42;2.20;;;23.90;99.90;;;;;;6229622;28;90053;-66
2022/08/16 15:30:26;;;;;;;2.95;2.38;;;23.90;99.90;;;;;;6226773;28;89064;-67
2022/08/16 15:33:28;;;;;;;2.40;2.20;;;23.90;99.90;;;;;;6218614;28;89400;-66
2022/08/16 15:36:30;;;;;;;2.22;2.10;;;23.90;99.90;;;;;;6229668;28;89019;-66
2022/08/16 15:39:34;;;;;;;2.25;2.10;;;23.90;99.90;;;;;;6228875;28;89026;-66
2022/08/16 15:42:36;;;;;;;3.03;2.70;;;23.90;99.90;;;;;;6229532;28;88050;-66
2022/08/16 15:48:58;;;;;;;2.38;2.17;;;23.90;99.90;;;;;;6220032;28;86695;-66
2022/08/16 15:52:00;;;;;;;2.40;2.20;;;23.90;99.90;;;;;;6217612;28;89098;-66
2022/08/16 15:55:09;;;;;;;2.30;2.10;;;23.90;99.90;;;;;;6229032;28;89632;-67